Time;durP1;ratioP1;P1;durP2;ratioP2;P2;SDS_P1;SDS_P2;PMS_P1;PMS_P2;Temp;Humidity;BMP_temperature;BMP_pressure;BME280_temperature;BME280_humidity;BME280_pressure;Samples;Min_cycle;Max_cycle;Signal;HPM_P1;HPM_P2
2021/01/15 00:00:55;;;;;;;12.85;6.80;;;;;;;;;;5058217;28;20060;-86
2021/01/15 00:03:21;;;;;;;14.20;8.07;;;;;;;;;;5058758;28;20049;-86
2021/01/15 00:05:47;;;;;;;11.82;7.68;;;;;;;;;;5058980;28;20500;-86
2021/01/15 00:08:13;;;;;;;18.10;8.05;;;;;;;;;;5058380;28;20052;-86
2021/01/15 00:10:39;;;;;;;13.15;7.65;;;;;;;;;;5057798;28;20053;-86
2021/01/15 00:13:05;;;;;;;16.25;8.32;;;;;;;;;;5057799;28;20091;-86
2021/01/15 00:15:31;;;;;;;13.25;8.18;;;;;;;;;;5058133;28;20644;-86
2021/01/15 00:17:58;;;;;;;16.85;8.80;;;;;;;;;;5057777;28;20712;-86
2021/01/15 00:20:24;;;;;;;13.15;8.40;;;;;;;;;;5057766;28;20464;-86
2021/01/15 00:22:50;;;;;;;15.02;8.18;;;;;;;;;;5065304;28;20045;-85
2021/01/15 00:25:16;;;;;;;16.75;8.65;;;;;;;;;;5078311;28;20079;-86
2021/01/15 00:27:42;;;;;;;14.93;8.60;;;;;;;;;;5073429;28;20493;-86
2021/01/15 00:30:10;;;;;;;15.45;9.07;;;;;;;;;;5049625;28;20461;-86
2021/01/15 00:32:36;;;;;;;14.07;9.07;;;;;;;;;;5060555;28;20055;-85
2021/01/15 00:35:03;;;;;;;17.40;9.40;;;;;;;;;;5077832;28;20049;-86
2021/01/15 00:37:29;;;;;;;16.40;9.77;;;;;;;;;;5077502;28;20083;-86
2021/01/15 00:39:55;;;;;;;17.83;9.55;;;;;;;;;;5078369;28;20049;-86
2021/01/15 00:42:21;;;;;;;14.82;9.20;;;;;;;;;;5077676;28;20057;-85
2021/01/15 00:44:47;;;;;;;14.27;8.70;;;;;;;;;;5077296;28;20052;-85
2021/01/15 00:47:13;;;;;;;13.90;8.57;;;;;;;;;;5077745;28;20056;-85
2021/01/15 00:49:39;;;;;;;13.23;8.95;;;;;;;;;;5077611;28;20056;-86
2021/01/15 00:52:06;;;;;;;17.77;10.27;;;;;;;;;;5079159;28;20109;-86
2021/01/15 00:54:32;;;;;;;14.35;8.38;;;;;;;;;;5078196;28;20044;-86
2021/01/15 00:56:59;;;;;;;22.15;9.75;;;;;;;;;;5078137;28;20044;-86
2021/01/15 00:59:25;;;;;;;16.63;9.00;;;;;;;;;;5078123;28;20044;-86
2021/01/15 01:01:51;;;;;;;13.75;8.50;;;;;;;;;;5072418;28;20052;-85
2021/01/15 01:04:17;;;;;;;14.20;8.02;;;;;;;;;;5059037;28;20052;-85
2021/01/15 01:06:43;;;;;;;14.73;9.18;;;;;;;;;;5058939;28;20087;-86
2021/01/15 01:09:10;;;;;;;14.02;8.45;;;;;;;;;;5058341;28;20084;-86
2021/01/15 01:11:36;;;;;;;15.45;8.98;;;;;;;;;;5057884;28;20049;-85
2021/01/15 01:14:03;;;;;;;15.73;9.05;;;;;;;;;;5058310;28;20041;-85
2021/01/15 01:16:30;;;;;;;14.55;9.13;;;;;;;;;;5057663;28;20052;-85
2021/01/15 01:18:56;;;;;;;18.17;9.23;;;;;;;;;;5057182;28;20051;-86
2021/01/15 01:21:23;;;;;;;17.98;9.82;;;;;;;;;;5057590;28;20091;-86
2021/01/15 01:23:49;;;;;;;14.02;8.95;;;;;;;;;;5057437;28;20052;-85
2021/01/15 01:26:16;;;;;;;14.60;9.63;;;;;;;;;;5057204;28;20049;-85
2021/01/15 01:28:42;;;;;;;16.63;9.13;;;;;;;;;;5057329;28;20049;-86
2021/01/15 01:31:09;;;;;;;12.43;8.35;;;;;;;;;;5056879;28;20366;-86
2021/01/15 01:33:35;;;;;;;15.00;9.50;;;;;;;;;;5057640;28;20041;-85
2021/01/15 01:36:01;;;;;;;13.68;9.15;;;;;;;;;;5057838;28;20556;-86
2021/01/15 01:38:27;;;;;;;13.15;8.65;;;;;;;;;;5057316;28;20056;-86
2021/01/15 01:40:53;;;;;;;17.73;10.23;;;;;;;;;;5057665;28;20131;-86
2021/01/15 01:43:20;;;;;;;14.23;8.95;;;;;;;;;;5057789;28;20144;-85
2021/01/15 01:45:46;;;;;;;16.65;9.82;;;;;;;;;;5058392;28;20049;-86
2021/01/15 01:48:12;;;;;;;16.92;9.02;;;;;;;;;;5057643;28;20056;-86
2021/01/15 01:50:41;;;;;;;15.73;9.23;;;;;;;;;;5057808;28;20413;-86
2021/01/15 01:53:08;;;;;;;15.68;8.23;;;;;;;;;;5057723;28;20049;-86
2021/01/15 01:55:34;;;;;;;13.85;8.88;;;;;;;;;;5057329;28;20049;-85
2021/01/15 01:58:00;;;;;;;15.02;9.13;;;;;;;;;;5072150;28;20102;-85
2021/01/15 02:00:28;;;;;;;13.77;9.10;;;;;;;;;;5078467;28;20044;-85
2021/01/15 02:02:56;;;;;;;17.02;8.85;;;;;;;;;;5081214;23;20040;-91
2021/01/15 02:05:22;;;;;;;13.73;8.63;;;;;;;;;;5034857;28;20389;-91
2021/01/15 02:07:50;;;;;;;13.70;7.88;;;;;;;;;;5034835;28;20137;-91
2021/01/15 02:10:20;;;;;;;14.25;7.95;;;;;;;;;;5034890;28;20136;-91
2021/01/15 02:13:02;;;;;;;18.35;9.60;;;;;;;;;;5035187;28;20044;-90
2021/01/15 02:15:37;;;;;;;13.32;7.32;;;;;;;;;;5034781;28;20041;-90
2021/01/15 02:18:09;;;;;;;13.88;7.82;;;;;;;;;;5034882;28;20068;-90
2021/01/15 02:20:56;;;;;;;15.90;8.07;;;;;;;;;;5035438;28;20454;-90
2021/01/15 02:23:25;;;;;;;13.77;7.40;;;;;;;;;;5029191;28;20057;-90
2021/01/15 02:26:23;;;;;;;11.88;7.55;;;;;;;;;;5038841;28;20053;-91
2021/01/15 02:29:08;;;;;;;13.90;7.60;;;;;;;;;;5038656;28;20049;-91
2021/01/15 02:32:10;;;;;;;13.93;7.47;;;;;;;;;;5039350;28;20045;-91
2021/01/15 02:34:53;;;;;;;14.38;7.50;;;;;;;;;;5015515;28;20137;-91
2021/01/15 02:37:22;;;;;;;12.05;7.07;;;;;;;;;;5039826;28;20049;-91
2021/01/15 02:40:02;;;;;;;15.35;7.35;;;;;;;;;;5039215;28;20052;-91
2021/01/15 02:42:33;;;;;;;13.45;8.07;;;;;;;;;;5039272;28;20097;-91
2021/01/15 02:45:00;;;;;;;11.10;6.50;;;;;;;;;;5038265;28;20470;-91
2021/01/15 02:47:30;;;;;;;11.65;7.55;;;;;;;;;;5038636;28;20037;-91
2021/01/15 02:50:01;;;;;;;13.57;7.05;;;;;;;;;;5038560;28;20037;-91
2021/01/15 02:52:29;;;;;;;13.15;7.93;;;;;;;;;;5038528;28;20114;-91
2021/01/15 02:54:56;;;;;;;12.57;7.13;;;;;;;;;;5038569;28;20042;-91
2021/01/15 02:57:22;;;;;;;15.38;7.85;;;;;;;;;;5038836;28;20469;-91
2021/01/15 02:59:49;;;;;;;13.73;8.25;;;;;;;;;;5039098;28;20041;-91
2021/01/15 03:02:21;;;;;;;11.88;7.10;;;;;;;;;;5039259;28;20497;-91
2021/01/15 03:04:54;;;;;;;13.70;7.43;;;;;;;;;;5037911;28;20133;-91
2021/01/15 03:07:23;;;;;;;14.93;8.25;;;;;;;;;;5038043;28;20381;-91
2021/01/15 03:09:53;;;;;;;13.20;7.65;;;;;;;;;;5039026;28;20482;-91
2021/01/15 03:12:20;;;;;;;11.30;6.20;;;;;;;;;;5056115;28;20053;-91
2021/01/15 03:14:48;;;;;;;12.05;6.05;;;;;;;;;;5044084;28;20072;-91
2021/01/15 03:17:17;;;;;;;10.50;6.60;;;;;;;;;;5042282;28;20064;-91
2021/01/15 03:19:44;;;;;;;13.68;6.82;;;;;;;;;;5041825;28;20045;-91
2021/01/15 03:22:11;;;;;;;9.82;6.50;;;;;;;;;;5040732;28;20041;-91
2021/01/15 03:24:43;;;;;;;11.88;6.07;;;;;;;;;;5039241;28;20046;-90
2021/01/15 03:27:10;;;;;;;12.40;6.22;;;;;;;;;;5039283;28;20053;-90
2021/01/15 03:29:39;;;;;;;8.80;6.13;;;;;;;;;;5038333;28;20072;-91
2021/01/15 03:32:05;;;;;;;14.77;6.88;;;;;;;;;;5037615;28;20056;-91
2021/01/15 03:34:32;;;;;;;11.25;5.65;;;;;;;;;;5037401;28;20053;-91
2021/01/15 03:37:28;;;;;;;12.73;6.13;;;;;;;;;;5037244;28;20389;-91
2021/01/15 03:39:55;;;;;;;9.07;5.35;;;;;;;;;;5038669;28;20057;-91
2021/01/15 03:42:21;;;;;;;10.60;5.93;;;;;;;;;;5038596;28;20064;-91
2021/01/15 03:44:47;;;;;;;12.15;6.30;;;;;;;;;;5038938;28;20076;-91
2021/01/15 03:47:13;;;;;;;10.38;6.47;;;;;;;;;;5038037;28;20132;-91
2021/01/15 03:49:40;;;;;;;10.15;6.13;;;;;;;;;;5038468;28;20076;-91
2021/01/15 03:52:10;;;;;;;11.35;5.57;;;;;;;;;;5038199;28;20046;-90
2021/01/15 03:54:36;;;;;;;8.70;6.07;;;;;;;;;;5038589;28;20049;-92
2021/01/15 03:57:04;;;;;;;12.80;6.65;;;;;;;;;;5037726;28;20100;-93
2021/01/15 03:59:30;;;;;;;10.25;6.13;;;;;;;;;;5036739;28;20042;-92
2021/01/15 04:01:57;;;;;;;13.40;6.93;;;;;;;;;;5036092;28;20442;-92
2021/01/15 04:04:23;;;;;;;14.48;6.40;;;;;;;;;;5037918;28;20108;-92
2021/01/15 04:06:50;;;;;;;10.23;6.10;;;;;;;;;;5038043;28;20046;-92
2021/01/15 04:09:16;;;;;;;12.15;7.50;;;;;;;;;;5037721;28;20053;-92
2021/01/15 04:11:42;;;;;;;12.13;7.05;;;;;;;;;;5038045;28;20136;-92
2021/01/15 04:14:10;;;;;;;15.50;7.90;;;;;;;;;;5037559;28;20107;-91
2021/01/15 04:16:36;;;;;;;13.73;6.65;;;;;;;;;;5038540;28;20041;-91
2021/01/15 04:19:03;;;;;;;11.73;6.38;;;;;;;;;;5037385;28;20049;-92
2021/01/15 04:21:29;;;;;;;13.13;7.10;;;;;;;;;;5037428;28;20477;-92
2021/01/15 04:23:55;;;;;;;15.57;7.65;;;;;;;;;;5036143;28;20496;-91
2021/01/15 04:26:21;;;;;;;12.43;7.35;;;;;;;;;;5037316;28;20049;-91
2021/01/15 04:28:49;;;;;;;13.52;8.13;;;;;;;;;;5037281;28;20041;-92
2021/01/15 04:31:17;;;;;;;11.93;7.38;;;;;;;;;;5037506;28;20081;-92
2021/01/15 04:33:44;;;;;;;12.43;7.50;;;;;;;;;;5037893;28;20045;-91
2021/01/15 04:36:11;;;;;;;14.57;7.60;;;;;;;;;;5038877;28;20041;-92
2021/01/15 04:38:39;;;;;;;13.80;7.43;;;;;;;;;;5038377;28;20371;-92
2021/01/15 04:41:05;;;;;;;14.48;8.38;;;;;;;;;;5037886;28;20042;-91
2021/01/15 04:43:34;;;;;;;16.67;8.57;;;;;;;;;;5038426;28;20073;-93
2021/01/15 04:46:03;;;;;;;13.05;7.45;;;;;;;;;;5037971;28;20071;-92
2021/01/15 04:48:31;;;;;;;11.85;7.78;;;;;;;;;;5038138;28;20386;-92
2021/01/15 04:50:59;;;;;;;12.52;6.80;;;;;;;;;;5038654;28;20041;-92
2021/01/15 04:53:26;;;;;;;11.60;7.70;;;;;;;;;;5039748;28;20041;-92
2021/01/15 04:55:58;;;;;;;13.98;8.23;;;;;;;;;;5039681;28;20053;-92
2021/01/15 04:58:26;;;;;;;12.07;7.10;;;;;;;;;;5037821;28;20041;-92
2021/01/15 05:00:58;;;;;;;16.05;8.98;;;;;;;;;;5036257;28;20392;-92
2021/01/15 05:03:25;;;;;;;18.33;10.10;;;;;;;;;;5037211;28;20045;-92
2021/01/15 05:05:59;;;;;;;22.17;11.02;;;;;;;;;;5036372;28;20477;-93
2021/01/15 05:08:27;;;;;;;17.98;9.65;;;;;;;;;;5036252;28;20113;-92
2021/01/15 05:10:55;;;;;;;16.63;9.13;;;;;;;;;;5036315;28;20461;-92
2021/01/15 05:13:23;;;;;;;22.55;11.10;;;;;;;;;;5036185;28;20049;-92
2021/01/15 05:15:51;;;;;;;17.13;9.90;;;;;;;;;;5036359;28;20068;-92
2021/01/15 05:18:20;;;;;;;16.05;9.30;;;;;;;;;;5036389;28;20049;-93
2021/01/15 05:20:49;;;;;;;15.77;8.00;;;;;;;;;;5036608;28;20099;-93
2021/01/15 05:23:25;;;;;;;19.08;10.05;;;;;;;;;;5036058;28;20049;-92
2021/01/15 05:25:54;;;;;;;14.43;9.20;;;;;;;;;;5051521;28;20050;-93
2021/01/15 05:28:25;;;;;;;20.73;12.30;;;;;;;;;;5035572;28;20087;-92
2021/01/15 05:30:57;;;;;;;19.30;11.25;;;;;;;;;;5043406;28;20033;-92
2021/01/15 05:33:23;;;;;;;20.30;11.10;;;;;;;;;;5055322;28;20045;-92
2021/01/15 05:35:51;;;;;;;21.35;11.52;;;;;;;;;;5056889;28;20131;-92
2021/01/15 05:38:19;;;;;;;20.55;11.15;;;;;;;;;;5056581;28;20068;-93
2021/01/15 05:40:47;;;;;;;24.08;12.65;;;;;;;;;;5056293;28;20060;-93
2021/01/15 05:43:24;;;;;;;25.95;12.70;;;;;;;;;;5056301;28;20045;-92
2021/01/15 05:46:07;;;;;;;23.00;11.75;;;;;;;;;;5055293;28;20048;-93
2021/01/15 05:48:36;;;;;;;24.60;12.95;;;;;;;;;;5055188;28;20048;-92
2021/01/15 05:51:06;;;;;;;21.88;11.88;;;;;;;;;;5055478;28;20094;-93
2021/01/15 05:53:47;;;;;;;23.58;12.57;;;;;;;;;;5055495;28;20040;-93
2021/01/15 05:56:18;;;;;;;20.30;10.73;;;;;;;;;;5048394;28;20048;-92
2021/01/15 05:59:07;;;;;;;20.60;10.45;;;;;;;;;;5055261;28;20075;-93
2021/01/15 06:02:08;;;;;;;19.38;10.57;;;;;;;;;;5056295;28;20107;-93
2021/01/15 06:04:48;;;;;;;22.33;10.98;;;;;;;;;;5056343;28;20131;-93
2021/01/15 06:07:23;;;;;;;27.58;14.18;;;;;;;;;;5030124;28;20056;-93
2021/01/15 06:10:04;;;;;;;27.02;13.05;;;;;;;;;;5058706;28;20049;-92
2021/01/15 06:12:42;;;;;;;28.42;14.93;;;;;;;;;;5058002;28;20048;-92
2021/01/15 06:15:18;;;;;;;29.73;15.88;;;;;;;;;;5039326;28;20046;-95
2021/01/15 06:17:57;;;;;;;29.92;14.73;;;;;;;;;;5039962;28;20056;-92
2021/01/15 06:20:36;;;;;;;40.00;17.25;;;;;;;;;;5039369;28;20179;-93
2021/01/15 06:23:51;;;;;;;38.92;18.65;;;;;;;;;;5059406;28;20081;-92
2021/01/15 06:26:19;;;;;;;30.42;16.50;;;;;;;;;;5069149;28;20052;-92
2021/01/15 06:28:46;;;;;;;38.88;16.58;;;;;;;;;;5071356;28;20052;-92
2021/01/15 06:31:13;;;;;;;38.78;17.67;;;;;;;;;;5076146;28;20068;-92
2021/01/15 06:33:39;;;;;;;53.65;19.55;;;;;;;;;;5059609;28;20037;-92
2021/01/15 06:36:07;;;;;;;39.97;18.48;;;;;;;;;;5057940;28;20059;-92
2021/01/15 06:38:36;;;;;;;50.30;20.50;;;;;;;;;;5041103;28;20040;-93
2021/01/15 06:41:03;;;;;;;40.17;18.42;;;;;;;;;;5049668;28;20053;-92
2021/01/15 06:43:31;;;;;;;47.25;20.27;;;;;;;;;;5021168;28;20049;-92
2021/01/15 06:46:00;;;;;;;46.92;22.70;;;;;;;;;;5038159;28;20098;-92
2021/01/15 06:48:28;;;;;;;44.63;19.17;;;;;;;;;;5038065;28;20109;-92
2021/01/15 06:50:55;;;;;;;49.92;20.90;;;;;;;;;;5038580;28;20088;-92
2021/01/15 06:53:24;;;;;;;52.92;22.23;;;;;;;;;;5037841;28;20413;-92
2021/01/15 06:55:52;;;;;;;47.78;20.90;;;;;;;;;;5020321;28;20041;-92
2021/01/15 06:58:23;;;;;;;47.47;21.70;;;;;;;;;;5040373;28;20141;-92
2021/01/15 07:01:17;;;;;;;47.83;19.98;;;;;;;;;;5037997;28;20047;-92
2021/01/15 07:04:12;;;;;;;41.90;19.55;;;;;;;;;;5036615;28;20049;-92
2021/01/15 07:06:39;;;;;;;43.50;17.80;;;;;;;;;;5018005;28;20041;-93
2021/01/15 07:09:07;;;;;;;45.38;19.95;;;;;;;;;;5035554;28;20041;-92
2021/01/15 07:11:34;;;;;;;44.67;19.73;;;;;;;;;;5038913;28;20045;-93
2021/01/15 07:14:03;;;;;;;42.83;20.10;;;;;;;;;;5039751;28;20047;-92
2021/01/15 07:36:50;;;;;;;39.65;18.33;;;;;;;;;;4936131;29;20047;-91
2021/01/15 07:39:36;;;;;;;60.55;28.20;;;;;;;;;;4960791;28;20042;-93
2021/01/15 07:49:39;;;;;;;45.95;20.83;;;;;;;;;;4907443;29;20060;-93
2021/01/15 07:52:10;;;;;;;50.00;21.80;;;;;;;;;;4915158;28;20041;-92
2021/01/15 08:01:32;;;;;;;43.63;19.73;;;;;;;;;;4959156;28;20494;-93
2021/01/15 08:03:58;;;;;;;39.33;20.30;;;;;;;;;;4958821;28;20043;-92
2021/01/15 08:06:26;;;;;;;40.03;20.38;;;;;;;;;;4962735;28;20158;-92
2021/01/15 08:09:07;;;;;;;38.00;17.67;;;;;;;;;;5021611;28;20141;-92
2021/01/15 08:11:34;;;;;;;36.97;17.42;;;;;;;;;;5016999;28;20046;-92
2021/01/15 08:14:11;;;;;;;39.47;17.42;;;;;;;;;;5018829;28;20073;-92
2021/01/15 08:16:37;;;;;;;36.35;18.30;;;;;;;;;;4999853;28;20046;-90
2021/01/15 08:19:10;;;;;;;42.88;21.73;;;;;;;;;;5004658;28;20045;-92
2021/01/15 08:21:38;;;;;;;36.45;18.88;;;;;;;;;;5022092;28;20070;-92
2021/01/15 08:24:06;;;;;;;38.67;18.85;;;;;;;;;;5038325;28;20076;-92
2021/01/15 08:26:44;;;;;;;35.60;19.25;;;;;;;;;;5041593;28;20049;-93
2021/01/15 08:29:10;;;;;;;34.95;18.13;;;;;;;;;;5042103;28;20049;-92
2021/01/15 08:31:37;;;;;;;34.70;19.05;;;;;;;;;;5038072;28;20496;-92
2021/01/15 08:34:07;;;;;;;34.90;16.67;;;;;;;;;;5019906;28;20037;-92
2021/01/15 08:36:34;;;;;;;31.27;16.05;;;;;;;;;;5018932;28;20494;-92
2021/01/15 08:39:01;;;;;;;29.73;14.00;;;;;;;;;;5019253;28;20129;-93
2021/01/15 08:41:28;;;;;;;31.10;16.30;;;;;;;;;;5021201;28;20073;-93
2021/01/15 08:46:39;;;;;;;26.63;14.70;;;;;;;;;;5019466;28;20052;-93
2021/01/15 08:51:54;;;;;;;25.83;15.27;;;;;;;;;;5021639;28;20054;-92
2021/01/15 08:54:23;;;;;;;29.15;15.98;;;;;;;;;;5022715;28;20050;-93
2021/01/15 08:57:17;;;;;;;29.27;15.40;;;;;;;;;;5024948;28;20081;-93
2021/01/15 08:59:43;;;;;;;29.88;16.17;;;;;;;;;;5022448;28;20049;-92
2021/01/15 09:02:10;;;;;;;26.92;17.15;;;;;;;;;;5017534;28;20038;-93
2021/01/15 09:04:37;;;;;;;30.05;15.93;;;;;;;;;;5018465;28;20117;-92
2021/01/15 09:07:06;;;;;;;31.83;15.43;;;;;;;;;;5018832;28;20136;-92
2021/01/15 09:09:34;;;;;;;26.48;15.52;;;;;;;;;;5016730;28;20046;-92
2021/01/15 09:12:02;;;;;;;28.20;15.70;;;;;;;;;;5018105;28;20072;-93
2021/01/15 09:14:33;;;;;;;32.63;16.70;;;;;;;;;;5017782;28;20046;-93
2021/01/15 09:17:00;;;;;;;24.80;13.18;;;;;;;;;;5001843;28;20083;-92
2021/01/15 09:19:27;;;;;;;25.90;14.82;;;;;;;;;;5016986;28;20046;-93
2021/01/15 09:21:56;;;;;;;27.42;14.68;;;;;;;;;;5016816;28;20052;-93
2021/01/15 09:24:23;;;;;;;25.10;14.50;;;;;;;;;;5017764;28;20053;-93
2021/01/15 09:26:55;;;;;;;27.13;14.73;;;;;;;;;;5018704;28;20063;-93
2021/01/15 09:29:22;;;;;;;24.02;13.43;;;;;;;;;;5017743;28;20467;-93
2021/01/15 09:31:51;;;;;;;27.55;14.15;;;;;;;;;;5019367;28;20471;-92
2021/01/15 09:34:18;;;;;;;32.60;15.63;;;;;;;;;;5015247;28;20052;-93
2021/01/15 09:36:46;;;;;;;31.52;14.85;;;;;;;;;;4997409;28;20045;-92
2021/01/15 09:39:13;;;;;;;31.98;16.67;;;;;;;;;;5016527;28;20077;-91
2021/01/15 09:41:45;;;;;;;30.98;16.85;;;;;;;;;;5016067;28;20068;-93
2021/01/15 09:44:12;;;;;;;38.20;19.38;;;;;;;;;;5017600;28;20042;-93
2021/01/15 09:46:38;;;;;;;40.97;20.40;;;;;;;;;;5019965;28;20076;-92
2021/01/15 09:49:06;;;;;;;38.45;20.02;;;;;;;;;;5015502;28;20054;-92
2021/01/15 09:51:34;;;;;;;42.00;18.83;;;;;;;;;;5014476;28;20073;-93
2021/01/15 09:54:01;;;;;;;37.15;18.33;;;;;;;;;;5015073;28;20534;-92
2021/01/15 09:56:29;;;;;;;32.33;17.05;;;;;;;;;;5015214;28;20050;-90
2021/01/15 09:58:56;;;;;;;35.65;19.92;;;;;;;;;;5019563;28;20046;-87
2021/01/15 10:01:23;;;;;;;31.10;18.85;;;;;;;;;;5020537;28;20136;-91
2021/01/15 10:03:50;;;;;;;27.13;16.83;;;;;;;;;;5016841;28;20045;-91
2021/01/15 10:06:18;;;;;;;30.98;16.10;;;;;;;;;;5019420;28;20046;-92
2021/01/15 10:08:46;;;;;;;30.30;15.52;;;;;;;;;;5016970;28;20135;-89
2021/01/15 10:11:20;;;;;;;31.05;16.35;;;;;;;;;;4997297;28;20042;-89
2021/01/15 10:13:46;;;;;;;28.70;17.52;;;;;;;;;;4999481;28;20056;-89
2021/01/15 10:16:12;;;;;;;28.63;17.00;;;;;;;;;;5021002;28;20140;-89
2021/01/15 10:18:39;;;;;;;28.20;16.08;;;;;;;;;;5035423;28;20069;-88
2021/01/15 10:21:05;;;;;;;27.48;15.10;;;;;;;;;;5035134;28;20052;-89
2021/01/15 10:23:35;;;;;;;22.65;12.85;;;;;;;;;;5007394;28;20367;-88
2021/01/15 10:26:01;;;;;;;25.30;13.63;;;;;;;;;;5015259;28;20378;-88
2021/01/15 10:28:28;;;;;;;26.25;14.00;;;;;;;;;;5014765;28;20038;-88
2021/01/15 10:30:54;;;;;;;28.15;15.23;;;;;;;;;;4998071;28;20046;-91
2021/01/15 10:33:21;;;;;;;25.38;15.55;;;;;;;;;;5016675;28;20123;-88
2021/01/15 10:35:47;;;;;;;29.40;16.17;;;;;;;;;;5016157;28;20046;-89
2021/01/15 10:38:14;;;;;;;31.23;16.10;;;;;;;;;;5014700;28;20381;-89
2021/01/15 10:40:41;;;;;;;29.58;17.00;;;;;;;;;;4996661;28;20045;-89
2021/01/15 10:43:07;;;;;;;30.42;16.88;;;;;;;;;;4998017;28;20038;-89
2021/01/15 10:45:33;;;;;;;29.42;15.73;;;;;;;;;;4998626;28;20058;-89
2021/01/15 10:47:59;;;;;;;26.98;16.13;;;;;;;;;;5000759;28;20054;-86
2021/01/15 10:50:25;;;;;;;27.90;16.50;;;;;;;;;;5018289;28;20464;-91
2021/01/15 10:52:52;;;;;;;27.17;16.13;;;;;;;;;;5001218;28;20046;-90
2021/01/15 10:55:18;;;;;;;28.27;15.95;;;;;;;;;;5000466;28;20112;-91
2021/01/15 10:57:46;;;;;;;26.85;15.98;;;;;;;;;;5000837;28;20117;-89
2021/01/15 11:00:13;;;;;;;37.80;18.50;;;;;;;;;;5018191;28;20478;-89
2021/01/15 11:02:39;;;;;;;30.30;17.10;;;;;;;;;;5017221;28;20173;-89
2021/01/15 11:05:07;;;;;;;35.75;18.35;;;;;;;;;;5017913;28;20042;-90
2021/01/15 11:07:33;;;;;;;30.83;17.63;;;;;;;;;;5000933;28;20049;-90
2021/01/15 11:09:59;;;;;;;37.22;19.63;;;;;;;;;;4999058;28;20045;-90
2021/01/15 11:12:25;;;;;;;35.00;17.85;;;;;;;;;;5018567;28;20069;-90
2021/01/15 11:14:52;;;;;;;30.80;17.75;;;;;;;;;;5032741;28;20050;-91
2021/01/15 11:17:18;;;;;;;29.17;16.35;;;;;;;;;;5017714;28;20095;-91
2021/01/15 11:19:44;;;;;;;37.63;19.30;;;;;;;;;;5017675;28;20448;-91
2021/01/15 11:22:10;;;;;;;28.30;16.67;;;;;;;;;;5032676;28;20156;-90
2021/01/15 11:24:37;;;;;;;29.25;17.38;;;;;;;;;;4988874;28;20050;-90
2021/01/15 11:27:03;;;;;;;31.52;17.60;;;;;;;;;;5055199;28;20073;-90
2021/01/15 11:29:29;;;;;;;48.53;23.70;;;;;;;;;;5039038;28;20113;-88
2021/01/15 11:31:56;;;;;;;38.53;21.05;;;;;;;;;;5035143;28;20137;-90
2021/01/15 11:34:22;;;;;;;30.63;17.42;;;;;;;;;;5000706;28;20051;-89
2021/01/15 11:36:48;;;;;;;31.70;17.15;;;;;;;;;;5017295;28;20129;-90
2021/01/15 11:39:15;;;;;;;32.78;17.17;;;;;;;;;;5016915;28;20054;-90
2021/01/15 11:41:42;;;;;;;29.58;17.13;;;;;;;;;;5016968;28;20046;-90
2021/01/15 11:44:08;;;;;;;29.48;18.20;;;;;;;;;;5015486;28;20439;-90
2021/01/15 11:46:35;;;;;;;34.55;18.42;;;;;;;;;;5016484;28;20046;-90
2021/01/15 11:49:04;;;;;;;32.90;19.90;;;;;;;;;;5017896;28;20060;-89
2021/01/15 11:51:33;;;;;;;32.00;20.00;;;;;;;;;;5020672;28;20042;-89
2021/01/15 11:54:00;;;;;;;33.28;18.52;;;;;;;;;;5007215;28;20046;-89
2021/01/15 11:56:26;;;;;;;32.05;17.25;;;;;;;;;;5015597;28;20482;-90
2021/01/15 11:58:52;;;;;;;30.70;18.85;;;;;;;;;;5031733;28;20046;-90
2021/01/15 12:01:19;;;;;;;30.95;18.85;;;;;;;;;;5016481;28;20125;-90
2021/01/15 12:03:46;;;;;;;35.97;19.80;;;;;;;;;;5016356;28;20478;-90
2021/01/15 12:06:13;;;;;;;25.85;16.55;;;;;;;;;;5017455;28;20046;-90
2021/01/15 12:08:40;;;;;;;31.98;17.38;;;;;;;;;;5042882;28;20042;-89
2021/01/15 12:11:07;;;;;;;30.35;17.40;;;;;;;;;;5032341;28;20458;-90
2021/01/15 12:13:33;;;;;;;24.33;15.80;;;;;;;;;;4998744;28;20042;-88
2021/01/15 12:16:00;;;;;;;28.35;16.10;;;;;;;;;;4999095;28;20088;-91
2021/01/15 12:18:26;;;;;;;27.30;16.88;;;;;;;;;;5017163;28;20052;-91
2021/01/15 12:20:52;;;;;;;22.85;14.63;;;;;;;;;;4998734;28;20468;-91
2021/01/15 12:23:21;;;;;;;26.60;16.25;;;;;;;;;;5015778;28;20490;-89
2021/01/15 12:25:47;;;;;;;26.58;16.17;;;;;;;;;;4999272;28;20050;-90
2021/01/15 12:28:14;;;;;;;28.48;17.08;;;;;;;;;;5017419;28;20056;-90
2021/01/15 12:30:41;;;;;;;26.88;16.95;;;;;;;;;;4998609;28;20049;-91
2021/01/15 12:33:08;;;;;;;27.13;16.25;;;;;;;;;;4998988;28;20046;-89
2021/01/15 12:35:34;;;;;;;27.98;15.65;;;;;;;;;;5015554;28;20046;-92
2021/01/15 12:38:04;;;;;;;23.73;16.00;;;;;;;;;;5016663;28;20121;-90
2021/01/15 12:40:31;;;;;;;24.30;14.98;;;;;;;;;;5017052;28;20053;-89
2021/01/15 12:42:57;;;;;;;26.75;15.05;;;;;;;;;;5014636;28;20060;-90
2021/01/15 12:45:23;;;;;;;25.73;15.98;;;;;;;;;;5015998;28;20069;-89
2021/01/15 12:47:49;;;;;;;25.90;15.35;;;;;;;;;;5017494;28;20060;-89
2021/01/15 12:50:16;;;;;;;25.15;15.32;;;;;;;;;;4997625;28;20056;-90
2021/01/15 12:52:42;;;;;;;24.73;15.98;;;;;;;;;;4982721;28;20046;-91
2021/01/15 12:55:35;;;;;;;24.90;14.80;;;;;;;;;;5036608;28;20045;-91
2021/01/15 12:58:01;;;;;;;23.98;15.70;;;;;;;;;;5017873;28;20438;-88
2021/01/15 13:00:29;;;;;;;22.58;13.77;;;;;;;;;;5030512;28;20046;-89
2021/01/15 13:02:55;;;;;;;22.83;14.15;;;;;;;;;;4997495;28;20046;-89
2021/01/15 13:05:21;;;;;;;24.77;14.45;;;;;;;;;;5015792;28;20050;-88
2021/01/15 13:07:47;;;;;;;23.42;14.50;;;;;;;;;;5015050;28;20046;-89
2021/01/15 13:10:14;;;;;;;19.95;13.35;;;;;;;;;;5015516;28;20445;-87
2021/01/15 13:12:41;;;;;;;21.17;13.52;;;;;;;;;;5014737;28;20045;-87
2021/01/15 13:15:09;;;;;;;22.52;13.70;;;;;;;;;;5015636;28;20046;-87
2021/01/15 13:17:50;;;;;;;22.10;13.82;;;;;;;;;;5014677;28;20049;-86
2021/01/15 13:20:17;;;;;;;22.45;13.45;;;;;;;;;;5015154;28;20060;-87
2021/01/15 13:22:43;;;;;;;22.10;14.45;;;;;;;;;;4997292;28;20119;-86
2021/01/15 13:25:10;;;;;;;21.35;13.65;;;;;;;;;;4997519;28;20045;-87
2021/01/15 13:27:43;;;;;;;22.70;13.52;;;;;;;;;;5016654;28;20050;-86
2021/01/15 13:30:10;;;;;;;19.90;12.57;;;;;;;;;;4997466;28;20052;-87
2021/01/15 13:32:36;;;;;;;21.73;13.15;;;;;;;;;;4997692;28;20474;-89
2021/01/15 13:35:04;;;;;;;28.92;14.13;;;;;;;;;;5014850;28;20050;-89
2021/01/15 13:37:36;;;;;;;32.97;15.00;;;;;;;;;;5014610;28;20041;-90
2021/01/15 13:40:04;;;;;;;38.22;15.75;;;;;;;;;;5015009;28;20137;-88
2021/01/15 13:42:30;;;;;;;24.40;13.63;;;;;;;;;;5014706;28;20412;-90
2021/01/15 13:44:57;;;;;;;26.42;14.13;;;;;;;;;;4996719;28;20073;-89
2021/01/15 13:47:24;;;;;;;22.25;13.85;;;;;;;;;;4981249;28;20054;-89
2021/01/15 13:49:50;;;;;;;21.63;13.35;;;;;;;;;;5014549;28;20050;-89
2021/01/15 13:52:16;;;;;;;37.28;13.75;;;;;;;;;;5014215;28;20049;-88
2021/01/15 13:54:43;;;;;;;19.00;12.63;;;;;;;;;;4981276;28;20058;-88
2021/01/15 13:57:09;;;;;;;22.60;12.55;;;;;;;;;;4997202;28;20046;-89
2021/01/15 13:59:35;;;;;;;39.60;15.07;;;;;;;;;;4981215;28;20367;-88
2021/01/15 14:02:03;;;;;;;20.85;13.20;;;;;;;;;;5006168;28;20041;-89
2021/01/15 14:04:29;;;;;;;19.67;11.73;;;;;;;;;;5034201;28;20383;-89
2021/01/15 14:06:55;;;;;;;19.08;13.15;;;;;;;;;;5034666;28;20389;-90
2021/01/15 14:09:21;;;;;;;22.20;14.15;;;;;;;;;;5035786;28;20069;-90
2021/01/15 14:11:47;;;;;;;19.70;12.60;;;;;;;;;;5017793;28;20060;-91
2021/01/15 14:14:13;;;;;;;20.27;12.88;;;;;;;;;;5033551;28;20049;-88
2021/01/15 14:16:39;;;;;;;18.75;12.48;;;;;;;;;;5032993;28;20050;-88
2021/01/15 14:19:07;;;;;;;20.92;13.13;;;;;;;;;;4999170;28;20392;-90
2021/01/15 14:21:33;;;;;;;17.38;11.48;;;;;;;;;;5000499;28;20469;-90
2021/01/15 14:23:59;;;;;;;20.95;13.38;;;;;;;;;;5000985;28;20382;-89
2021/01/15 14:26:25;;;;;;;21.67;13.68;;;;;;;;;;5017267;28;20052;-90
2021/01/15 14:28:56;;;;;;;20.20;12.80;;;;;;;;;;5033859;28;20045;-90
2021/01/15 14:31:22;;;;;;;23.60;13.85;;;;;;;;;;5002565;28;20049;-90
2021/01/15 14:33:49;;;;;;;23.05;13.95;;;;;;;;;;5017000;28;20049;-91
2021/01/15 14:36:16;;;;;;;17.38;11.63;;;;;;;;;;5033956;28;20051;-91
2021/01/15 14:38:42;;;;;;;19.40;12.45;;;;;;;;;;5035662;28;20045;-88
2021/01/15 14:41:09;;;;;;;18.13;12.43;;;;;;;;;;5016802;28;20454;-88
2021/01/15 14:43:35;;;;;;;21.00;12.45;;;;;;;;;;5000276;28;20049;-88
2021/01/15 14:46:01;;;;;;;20.20;12.40;;;;;;;;;;5016795;28;20098;-88
2021/01/15 14:48:27;;;;;;;20.10;12.02;;;;;;;;;;5016268;28;20049;-89
2021/01/15 14:50:53;;;;;;;19.65;13.10;;;;;;;;;;5034222;28;20470;-90
2021/01/15 14:53:20;;;;;;;20.98;12.40;;;;;;;;;;5017491;28;20054;-89
2021/01/15 14:55:46;;;;;;;20.15;12.18;;;;;;;;;;5033775;28;20052;-88
2021/01/15 14:58:12;;;;;;;21.63;13.48;;;;;;;;;;5032681;28;20052;-88
2021/01/15 15:00:38;;;;;;;21.98;13.52;;;;;;;;;;5017035;28;20128;-90
2021/01/15 15:03:05;;;;;;;20.83;14.13;;;;;;;;;;5015023;28;20053;-90
2021/01/15 15:05:31;;;;;;;22.63;13.90;;;;;;;;;;5034372;28;20052;-90
2021/01/15 15:07:58;;;;;;;19.00;12.73;;;;;;;;;;4998839;28;20045;-91
2021/01/15 15:10:25;;;;;;;20.25;12.55;;;;;;;;;;5015933;28;20049;-88